Time;durP1;ratioP1;P1;durP2;ratioP2;P2;SDS_P1;SDS_P2;PMS_P1;PMS_P2;Temp;Humidity;BMP_temperature;BMP_pressure;BME280_temperature;BME280_humidity;BME280_pressure;Samples;Min_cycle;Max_cycle;Signal;HPM_P1;HPM_P2
2021/07/19 00:04:49;;;;;;;5.30;2.57;;;20.20;99.90;;;;;;6719298;88;20169;-78
2021/07/19 00:14:49;;;;;;;5.97;2.73;;;20.00;99.90;;;;;;6718682;88;20221;-78
2021/07/19 00:24:50;;;;;;;5.57;2.60;;;20.10;99.90;;;;;;6718843;88;20542;-77
2021/07/19 00:34:50;;;;;;;5.35;2.40;;;19.70;99.90;;;;;;6719530;88;20573;-77
2021/07/19 00:44:51;;;;;;;5.53;2.73;;;19.50;99.90;;;;;;6716978;88;20812;-78
2021/07/19 00:54:52;;;;;;;5.37;2.70;;;19.30;99.90;;;;;;6718890;88;20201;-77
2021/07/19 01:04:55;;;;;;;6.32;3.17;;;19.00;99.90;;;;;;6718987;88;20209;-77
2021/07/19 01:14:55;;;;;;;6.30;3.65;;;18.90;99.90;;;;;;6718124;88;20184;-77
2021/07/19 01:25:17;;;;;;;5.22;3.25;;;18.70;99.90;;;;;;6719269;88;20205;-77
2021/07/19 01:35:18;;;;;;;6.40;3.58;;;18.50;99.90;;;;;;6718401;88;20177;-78
2021/07/19 01:45:18;;;;;;;7.80;3.37;;;18.40;99.90;;;;;;6714600;88;20196;-79
2021/07/19 01:55:19;;;;;;;9.65;3.70;;;18.40;99.90;;;;;;6718389;88;20193;-78
2021/07/19 02:05:22;;;;;;;7.10;3.62;;;18.20;99.90;;;;;;6723540;88;20215;-79
2021/07/19 02:15:24;;;;;;;8.65;3.78;;;18.10;99.90;;;;;;6687510;88;20180;-78
2021/07/19 02:25:25;;;;;;;5.07;3.25;;;18.10;99.90;;;;;;6688076;88;20208;-77
2021/07/19 02:35:27;;;;;;;8.35;3.72;;;18.00;99.90;;;;;;6685814;88;20291;-78
2021/07/19 02:45:30;;;;;;;7.15;3.95;;;17.90;99.90;;;;;;6689652;88;20244;-78
2021/07/19 02:55:32;;;;;;;7.10;3.78;;;17.70;99.90;;;;;;6690140;88;20235;-78
2021/07/19 03:05:39;;;;;;;9.30;3.55;;;17.80;99.90;;;;;;6691885;88;20191;-79
2021/07/19 03:15:42;;;;;;;5.93;3.75;;;17.80;99.90;;;;;;6689298;88;20182;-79
2021/07/19 03:25:44;;;;;;;9.45;4.53;;;17.60;99.90;;;;;;6688258;88;20745;-77
2021/07/19 03:35:45;;;;;;;9.88;4.45;;;17.50;99.90;;;;;;6688460;88;20783;-79
2021/07/19 03:45:48;;;;;;;7.07;4.45;;;17.40;99.90;;;;;;6691429;88;20238;-79
2021/07/19 03:55:51;;;;;;;7.45;4.68;;;17.40;99.90;;;;;;6687965;88;20256;-77
2021/07/19 04:06:03;;;;;;;8.98;4.47;;;17.20;99.90;;;;;;6688535;88;20201;-79
2021/07/19 04:16:05;;;;;;;11.38;5.00;;;17.30;99.90;;;;;;6688084;88;20268;-78
2021/07/19 04:26:06;;;;;;;9.75;4.72;;;17.20;99.90;;;;;;6690681;88;20637;-79
2021/07/19 04:36:06;;;;;;;8.55;4.50;;;17.30;99.90;;;;;;6695319;88;20166;-80
2021/07/19 04:46:07;;;;;;;8.80;4.75;;;17.30;99.90;;;;;;6696554;88;20186;-79
2021/07/19 04:56:09;;;;;;;9.27;5.10;;;17.20;99.90;;;;;;6707978;88;20177;-79
2021/07/19 05:17:14;;;;;;;9.55;4.55;;;17.50;99.90;;;;;;6720373;88;20213;-80
2021/07/19 05:27:15;;;;;;;12.07;4.85;;;17.90;99.90;;;;;;6727853;88;20400;-80
2021/07/19 05:37:16;;;;;;;9.07;4.97;;;18.20;99.90;;;;;;6716395;88;20182;-80
2021/07/19 05:47:16;;;;;;;9.23;4.60;;;18.80;99.90;;;;;;6722869;88;20224;-80
2021/07/19 05:57:17;;;;;;;9.57;4.50;;;19.00;99.90;;;;;;6730433;88;20182;-80
2021/07/19 06:07:18;;;;;;;10.10;4.87;;;19.10;99.90;;;;;;6735665;88;20529;-83
2021/07/19 06:59:32;;;;;;;6.93;4.30;;;20.60;99.90;;;;;;6768957;87;20188;-80
2021/07/19 07:09:33;;;;;;;8.37;3.43;;;20.70;99.90;;;;;;6758491;87;20735;-80
2021/07/19 07:19:34;;;;;;;6.60;3.60;;;21.00;99.90;;;;;;6731690;88;20205;-79
2021/07/19 07:29:34;;;;;;;7.55;3.70;;;21.40;99.90;;;;;;6724563;88;20226;-80
2021/07/19 07:39:35;;;;;;;9.95;3.70;;;21.50;99.90;;;;;;6713970;88;20202;-80
2021/07/19 07:49:37;;;;;;;7.12;3.20;;;21.30;99.90;;;;;;6743304;88;20307;-80
2021/07/19 07:59:38;;;;;;;9.70;3.53;;;21.50;99.90;;;;;;6751333;88;20630;-81
2021/07/19 08:09:39;;;;;;;6.78;3.70;;;21.70;99.90;;;;;;6715430;88;20247;-81
2021/07/19 08:19:39;;;;;;;8.68;4.22;;;21.60;99.90;;;;;;6714139;88;20246;-80
2021/07/19 08:29:41;;;;;;;6.80;4.03;;;21.70;99.90;;;;;;6714582;88;20298;-80
2021/07/19 08:39:43;;;;;;;5.45;3.90;;;21.90;99.90;;;;;;6701617;88;20615;-80
2021/07/19 08:49:43;;;;;;;8.55;4.68;;;22.20;99.90;;;;;;6728886;88;20189;-81
2021/07/19 08:59:45;;;;;;;9.65;5.30;;;22.10;99.90;;;;;;6741706;88;20192;-79
2021/07/19 09:09:49;;;;;;;8.63;5.07;;;22.10;99.90;;;;;;6758324;87;20220;-78
2021/07/19 09:19:50;;;;;;;10.45;5.78;;;21.90;99.90;;;;;;6767526;87;20902;-78
2021/07/19 09:29:51;;;;;;;10.10;5.87;;;22.20;99.90;;;;;;6762157;88;20277;-78
2021/07/19 09:39:56;;;;;;;11.00;6.63;;;22.30;99.90;;;;;;6769110;88;20158;-79
2021/07/19 09:49:59;;;;;;;12.07;7.10;;;22.40;99.90;;;;;;6769084;88;20177;-78
2021/07/19 09:59:59;;;;;;;10.50;6.37;;;22.90;99.90;;;;;;6768859;88;20181;-79
2021/07/19 10:10:08;;;;;;;12.63;7.47;;;23.40;99.90;;;;;;6768322;87;20191;-79
2021/07/19 10:20:08;;;;;;;11.15;7.80;;;23.40;99.90;;;;;;6763259;87;20219;-80
2021/07/19 10:30:10;;;;;;;12.27;7.53;;;23.80;99.90;;;;;;6768653;88;20154;-79
2021/07/19 10:40:14;;;;;;;11.88;7.50;;;23.80;99.90;;;;;;6764420;87;20662;-77
2021/07/19 10:50:17;;;;;;;15.32;8.13;;;24.00;99.90;;;;;;6768533;87;20165;-78
2021/07/19 11:00:23;;;;;;;12.07;7.47;;;23.90;99.90;;;;;;6764264;77;20609;-78
2021/07/19 11:10:23;;;;;;;13.27;7.97;;;24.10;99.90;;;;;;6697136;88;20727;-78
2021/07/19 11:20:24;;;;;;;15.40;8.65;;;23.90;99.90;;;;;;6712125;88;20206;-79
2021/07/19 11:30:25;;;;;;;14.52;9.25;;;24.00;99.90;;;;;;6709857;88;20242;-79
2021/07/19 11:40:28;;;;;;;15.35;8.90;;;24.10;99.90;;;;;;6713007;88;21131;-81
2021/07/19 11:50:29;;;;;;;14.75;8.68;;;24.40;99.90;;;;;;6732537;88;20216;-80
2021/07/19 12:00:35;;;;;;;16.77;9.30;;;24.00;99.90;;;;;;6712034;88;20293;-78
2021/07/19 12:10:39;;;;;;;15.70;9.48;;;23.70;99.90;;;;;;6716058;88;20292;-78
2021/07/19 12:20:40;;;;;;;17.15;10.27;;;24.00;99.90;;;;;;6696676;88;20179;-79
2021/07/19 12:30:40;;;;;;;16.02;10.18;;;24.90;99.90;;;;;;6700619;88;20186;-80
2021/07/19 12:40:41;;;;;;;15.90;9.87;;;25.70;99.80;;;;;;6695042;88;20186;-80
2021/07/19 12:50:42;;;;;;;15.95;10.55;;;25.10;99.90;;;;;;6697521;88;20186;-79
2021/07/19 13:00:42;;;;;;;14.83;9.47;;;26.30;99.20;;;;;;6701476;88;20202;-79
2021/07/19 13:10:43;;;;;;;16.42;10.70;;;25.70;99.60;;;;;;6692065;88;20212;-79
2021/07/19 13:20:45;;;;;;;18.90;11.37;;;25.40;99.90;;;;;;6696211;88;20295;-79
2021/07/19 13:30:46;;;;;;;19.95;12.35;;;25.30;99.90;;;;;;6702352;88;20186;-79
2021/07/19 13:40:52;;;;;;;19.15;12.10;;;26.30;98.30;;;;;;6701377;88;20348;-80
2021/07/19 13:50:53;;;;;;;18.65;10.80;;;26.30;98.30;;;;;;6690715;88;20895;-77
2021/07/19 14:00:55;;;;;;;18.05;10.93;;;24.70;99.90;;;;;;6679567;89;20217;-79
2021/07/19 14:10:56;;;;;;;16.60;11.65;;;24.50;99.90;;;;;;6679673;88;20181;-78
2021/07/19 14:20:56;;;;;;;15.45;9.88;;;24.30;99.90;;;;;;6681977;88;20197;-78
2021/07/19 14:30:57;;;;;;;19.05;11.30;;;23.90;99.90;;;;;;6681455;88;20212;-79
2021/07/19 14:40:58;;;;;;;20.73;12.68;;;24.10;99.90;;;;;;6681563;88;20931;-78
2021/07/19 14:50:58;;;;;;;20.42;11.40;;;25.40;98.70;;;;;;6681448;88;20190;-79
2021/07/19 15:00:59;;;;;;;18.67;10.88;;;25.80;98.20;;;;;;6681234;88;20247;-78
2021/07/19 15:10:59;;;;;;;16.58;10.35;;;25.40;98.40;;;;;;6681477;88;20302;-78
2021/07/19 15:21:00;;;;;;;15.60;10.48;;;25.70;99.30;;;;;;6680932;88;20207;-78
2021/07/19 15:31:01;;;;;;;16.00;9.83;;;25.30;98.70;;;;;;6677914;88;20287;-78
2021/07/19 15:41:01;;;;;;;15.30;9.77;;;24.80;98.70;;;;;;6681186;88;20221;-79
2021/07/19 15:51:02;;;;;;;16.08;10.63;;;24.50;99.20;;;;;;6680290;88;20256;-78
2021/07/19 16:01:03;;;;;;;17.33;10.25;;;24.60;98.80;;;;;;6680485;88;20223;-78
2021/07/19 16:11:04;;;;;;;18.05;11.05;;;24.40;99.10;;;;;;6685929;88;20265;-79
2021/07/19 16:21:04;;;;;;;19.12;11.23;;;24.00;99.10;;;;;;6685069;88;20606;-78
2021/07/19 16:31:05;;;;;;;20.20;11.63;;;23.80;99.30;;;;;;6685214;88;20280;-80
2021/07/19 16:41:08;;;;;;;17.62;11.90;;;23.30;99.90;;;;;;6685088;88;20221;-77
2021/07/19 16:51:09;;;;;;;17.07;11.57;;;23.30;99.90;;;;;;6687675;88;20170;-80
2021/07/19 17:01:10;;;;;;;19.08;11.73;;;23.40;99.90;;;;;;6698499;88;20203;-78
2021/07/19 17:11:10;;;;;;;18.17;11.57;;;23.90;99.90;;;;;;6699598;88;20168;-78
2021/07/19 17:21:11;;;;;;;21.85;12.10;;;24.70;99.80;;;;;;6696737;89;20696;-79
2021/07/19 17:31:13;;;;;;;19.70;11.98;;;25.10;98.90;;;;;;6686953;89;20239;-78
2021/07/19 17:41:13;;;;;;;21.10;12.20;;;24.70;99.30;;;;;;6689428;89;20216;-79
2021/07/19 17:51:14;;;;;;;18.95;12.00;;;24.90;98.90;;;;;;6696500;88;20191;-79
2021/07/19 18:01:14;;;;;;;17.63;11.90;;;25.00;98.50;;;;;;6697220;88;20405;-78
2021/07/19 18:11:15;;;;;;;18.48;11.23;;;24.50;99.20;;;;;;6697754;88;20211;-80
2021/07/19 18:21:16;;;;;;;17.40;10.88;;;24.20;99.90;;;;;;6627488;88;20215;-80
2021/07/19 18:31:16;;;;;;;21.62;10.80;;;23.60;99.90;;;;;;6639278;88;20271;-79
2021/07/19 18:41:17;;;;;;;19.57;10.87;;;23.50;99.90;;;;;;6629428;88;20223;-78
2021/07/19 18:51:18;;;;;;;18.60;11.15;;;22.70;99.90;;;;;;6700833;88;20199;-78
2021/07/19 19:01:18;;;;;;;19.90;10.85;;;22.30;99.90;;;;;;6691009;88;20219;-78
2021/07/19 19:11:24;;;;;;;16.75;10.55;;;22.00;99.90;;;;;;6695512;88;20213;-77
2021/07/19 19:21:26;;;;;;;20.73;11.00;;;21.80;99.90;;;;;;6692789;88;20179;-78
2021/07/19 19:31:27;;;;;;;17.92;10.93;;;21.40;99.90;;;;;;6697898;88;20206;-78
2021/07/19 19:41:27;;;;;;;19.70;10.57;;;21.20;99.90;;;;;;6694981;88;20659;-77
2021/07/19 19:51:28;;;;;;;17.23;10.68;;;21.00;99.90;;;;;;6687305;88;21016;-79
2021/07/19 20:01:32;;;;;;;16.55;10.27;;;20.60;99.90;;;;;;6690790;88;20201;-78
2021/07/19 20:11:32;;;;;;;18.33;10.23;;;20.30;99.90;;;;;;6693046;88;20338;-77
2021/07/19 20:21:33;;;;;;;17.83;11.07;;;20.10;99.90;;;;;;6684585;88;20203;-78
2021/07/19 20:31:34;;;;;;;18.40;10.43;;;19.90;99.90;;;;;;6683298;88;20209;-79
2021/07/19 20:41:34;;;;;;;21.87;11.20;;;19.60;99.90;;;;;;6682509;88;20249;-78
2021/07/19 20:51:37;;;;;;;18.10;11.20;;;19.20;99.90;;;;;;6686902;88;20211;-78
2021/07/19 21:01:37;;;;;;;23.75;12.52;;;19.00;99.90;;;;;;6686759;88;20217;-78
2021/07/19 21:11:38;;;;;;;25.05;12.60;;;18.80;99.90;;;;;;6686044;88;20190;-78
2021/07/19 21:21:39;;;;;;;22.48;12.10;;;18.70;99.90;;;;;;6675851;88;20263;-78
2021/07/19 21:31:39;;;;;;;19.17;11.90;;;18.60;99.90;;;;;;6687179;88;20246;-79
2021/07/19 21:41:40;;;;;;;22.67;13.40;;;18.50;99.90;;;;;;6691315;88;20167;-78
2021/07/19 21:51:41;;;;;;;20.33;12.48;;;18.40;99.90;;;;;;6682756;89;20656;-78
2021/07/19 22:01:45;;;;;;;19.67;12.45;;;18.20;99.90;;;;;;6678352;88;20181;-78
2021/07/19 22:11:47;;;;;;;24.65;13.35;;;18.30;99.90;;;;;;6632215;89;20198;-78
2021/07/19 22:21:48;;;;;;;19.90;11.90;;;17.90;99.90;;;;;;6629397;89;20170;-79
2021/07/19 22:31:54;;;;;;;21.25;12.73;;;17.50;99.90;;;;;;6622372;89;20216;-78
2021/07/19 22:41:54;;;;;;;20.27;11.75;;;17.30;99.90;;;;;;6615086;89;20196;-78
2021/07/19 22:51:55;;;;;;;21.15;12.70;;;17.10;99.90;;;;;;6615690;89;20189;-78
2021/07/19 23:01:55;;;;;;;20.40;11.88;;;17.20;99.90;;;;;;6616468;89;20182;-78
2021/07/19 23:11:56;;;;;;;21.75;12.52;;;17.00;99.90;;;;;;6611703;89;20200;-77
2021/07/19 23:21:57;;;;;;;19.85;12.25;;;17.10;99.90;;;;;;6614904;89;20397;-77
2021/07/19 23:31:57;;;;;;;18.77;12.10;;;16.70;99.90;;;;;;6611019;89;20260;-78
2021/07/19 23:41:58;;;;;;;21.37;12.52;;;16.50;99.90;;;;;;6610473;89;20547;-77
2021/07/19 23:51:58;;;;;;;22.00;12.82;;;16.30;99.90;;;;;;6610582;89;20201;-77
